createdAt,value
2017-11-29T00:00:13.853Z,1.48
2017-11-29T00:01:24.133Z,1.53
2017-11-29T00:02:35.648Z,1.5
2017-11-29T00:03:46.488Z,1.48
2017-11-29T00:04:57.340Z,1.48
2017-11-29T00:06:08.062Z,1.46
2017-11-29T00:07:18.357Z,1.4
2017-11-29T00:08:29.073Z,1.5
2017-11-29T00:09:40.649Z,1.48
2017-11-29T00:10:51.075Z,1.39
2017-11-29T00:12:03.056Z,1.42
2017-11-29T00:13:13.010Z,1.32
2017-11-29T00:14:23.757Z,1.42
2017-11-29T00:15:35.154Z,1.32
2017-11-29T00:16:45.700Z,1.35
2017-11-29T00:17:56.179Z,1.36
2017-11-29T00:19:07.173Z,1.3
2017-11-29T00:20:17.561Z,1.33
2017-11-29T00:21:28.027Z,1.3
2017-11-29T00:22:39.615Z,1.35
2017-11-29T00:23:51.302Z,1.28
2017-11-29T00:25:01.837Z,1.32
2017-11-29T00:26:14.279Z,1.3
2017-11-29T00:27:24.997Z,1.42
2017-11-29T00:28:36.080Z,1.47
2017-11-29T00:29:49.150Z,1.4
2017-11-29T00:31:00.054Z,1.48
2017-11-29T00:32:11.440Z,1.4
2017-11-29T00:33:21.780Z,1.39
2017-11-29T00:34:32.074Z,1.29
2017-11-29T00:35:42.412Z,1.35
2017-11-29T00:36:52.738Z,1.46
2017-11-29T00:38:03.680Z,1.46
2017-11-29T00:39:14.594Z,1.47
2017-11-29T00:40:25.948Z,1.53
2017-11-29T00:41:36.284Z,1.54
2017-11-29T00:42:47.245Z,1.46
2017-11-29T00:43:58.181Z,1.3
2017-11-29T00:45:08.357Z,1.29
2017-11-29T00:46:20.470Z,1.22
2017-11-29T00:47:31.605Z,1.24
2017-11-29T00:48:42.227Z,1.18
2017-11-29T00:49:52.495Z,1.12
2017-11-29T00:51:02.771Z,1.12
2017-11-29T00:52:13.393Z,1.03
2017-11-29T00:53:24.481Z,0.99
2017-11-29T00:54:35.516Z,1.02
2017-11-29T00:55:46.005Z,1
2017-11-29T00:56:56.353Z,0.99
2017-11-29T00:58:06.866Z,1.04
2017-11-29T00:59:17.687Z,1.06
2017-11-29T01:00:28.045Z,1.03
2017-11-29T01:01:37.850Z,1.06
2017-11-29T01:02:48.158Z,1.06
2017-11-29T01:03:58.309Z,1.02
2017-11-29T01:05:08.802Z,0.99
2017-11-29T01:06:19.266Z,1
2017-11-29T01:07:29.281Z,1.03
2017-11-29T01:08:39.601Z,0.94
2017-11-29T01:09:50.106Z,0.85
2017-11-29T01:11:00.405Z,0.94
2017-11-29T01:12:10.415Z,0.94
2017-11-29T01:13:20.949Z,0.86
2017-11-29T01:14:31.078Z,0.85
2017-11-29T01:15:41.406Z,0.82
2017-11-29T01:16:51.714Z,0.9
2017-11-29T01:18:01.823Z,0.9
2017-11-29T01:19:12.283Z,0.84
2017-11-29T01:20:22.352Z,0.86
2017-11-29T01:21:32.967Z,0.82
2017-11-29T01:22:44.100Z,0.9
2017-11-29T01:23:55.522Z,0.9
2017-11-29T01:25:06.232Z,0.84
2017-11-29T01:26:17.876Z,0.81
2017-11-29T01:27:28.411Z,0.82
2017-11-29T01:28:38.904Z,0.79
2017-11-29T01:29:49.537Z,0.81
2017-11-29T01:30:59.819Z,0.78
2017-11-29T01:32:10.290Z,0.78
2017-11-29T01:33:20.836Z,0.79
2017-11-29T01:34:31.319Z,0.84
2017-11-29T01:35:41.521Z,0.81
2017-11-29T01:36:51.343Z,0.79
2017-11-29T01:38:01.625Z,0.82
2017-11-29T01:39:12.274Z,0.78
2017-11-29T01:40:22.813Z,0.76
2017-11-29T01:41:32.849Z,0.79
2017-11-29T01:42:43.499Z,0.72
2017-11-29T01:43:53.764Z,0.84
2017-11-29T01:45:04.793Z,0.84
2017-11-29T01:46:16.081Z,0.85
2017-11-29T01:47:28.085Z,0.85
2017-11-29T01:48:38.121Z,0.9
2017-11-29T01:49:48.785Z,0.88
2017-11-29T01:50:59.356Z,0.82
2017-11-29T01:52:09.667Z,0.84
2017-11-29T01:53:20.440Z,0.88
2017-11-29T01:54:31.633Z,0.78
2017-11-29T01:55:42.236Z,0.76
2017-11-29T01:56:52.776Z,0.81
2017-11-29T01:58:03.013Z,0.78
2017-11-29T01:59:13.356Z,0.84
2017-11-29T02:00:26.574Z,0.84
2017-11-29T02:01:38.495Z,0.82
2017-11-29T02:02:49.387Z,0.78
2017-11-29T02:04:00.293Z,0.84
2017-11-29T02:05:10.600Z,0.82
2017-11-29T02:06:21.766Z,0.81
2017-11-29T02:07:32.059Z,0.81
2017-11-29T02:08:42.422Z,0.75
2017-11-29T02:09:52.729Z,0.81
2017-11-29T02:11:02.772Z,0.74
2017-11-29T02:12:13.472Z,0.63
2017-11-29T02:13:23.823Z,0.66
2017-11-29T02:14:34.101Z,0.71
2017-11-29T02:15:44.409Z,0.66
2017-11-29T02:16:54.614Z,0.64
2017-11-29T02:18:05.231Z,0.66
2017-11-29T02:19:15.508Z,0.71
2017-11-29T02:20:25.806Z,0.74
2017-11-29T02:21:36.532Z,0.66
2017-11-29T02:22:46.816Z,0.66
2017-11-29T02:23:57.932Z,0.72
2017-11-29T02:25:09.037Z,0.71
2017-11-29T02:26:19.373Z,0.71
2017-11-29T02:27:29.847Z,0.64
2017-11-29T02:28:40.916Z,0.71
2017-11-29T02:29:52.783Z,0.74
2017-11-29T02:31:03.158Z,0.71
2017-11-29T02:32:13.890Z,0.74
2017-11-29T02:33:25.606Z,0.71
2017-11-29T02:34:36.636Z,0.68
2017-11-29T02:35:47.210Z,0.64
2017-11-29T02:36:57.758Z,0.6
2017-11-29T02:38:08.033Z,0.58
2017-11-29T02:39:18.590Z,0.56
2017-11-29T02:40:28.900Z,0.6
2017-11-29T02:41:39.152Z,0.56
2017-11-29T02:42:49.720Z,0.63
2017-11-29T02:44:00.017Z,0.6
2017-11-29T02:45:10.355Z,0.48
2017-11-29T02:46:21.157Z,0.43
2017-11-29T02:47:32.691Z,0.48
2017-11-29T02:48:43.005Z,0.48
2017-11-29T02:49:53.331Z,0.56
2017-11-29T02:51:03.623Z,0.6
2017-11-29T02:52:14.008Z,0.6
2017-11-29T02:53:24.312Z,0.63
2017-11-29T02:54:34.612Z,0.54
2017-11-29T02:55:45.758Z,0.58
2017-11-29T02:56:55.775Z,0.63
2017-11-29T02:58:06.339Z,0.53
2017-11-29T02:59:16.118Z,0.63
2017-11-29T03:00:26.862Z,0.6
2017-11-29T03:01:37.801Z,0.6
2017-11-29T03:02:48.179Z,0.61
2017-11-29T03:03:58.459Z,0.56
2017-11-29T03:05:08.726Z,0.54
2017-11-29T03:06:18.629Z,0.61
2017-11-29T03:07:28.976Z,0.57
2017-11-29T03:08:39.231Z,0.58
2017-11-29T03:09:49.511Z,0.58
2017-11-29T03:10:59.839Z,0.61
2017-11-29T03:12:09.572Z,0.57
2017-11-29T03:13:19.850Z,0.63
2017-11-29T03:14:30.135Z,0.58
2017-11-29T03:15:40.395Z,0.49
2017-11-29T03:16:50.670Z,0.46
2017-11-29T03:18:00.466Z,0.49
2017-11-29T03:19:11.173Z,0.5
2017-11-29T03:20:21.306Z,0.39
2017-11-29T03:21:31.565Z,0.38
2017-11-29T03:22:41.625Z,0.42
2017-11-29T03:23:51.583Z,0.36
2017-11-29T03:25:01.849Z,0.49
2017-11-29T03:26:12.013Z,0.3
2017-11-29T03:27:22.322Z,0.35
2017-11-29T03:28:32.789Z,0.33
2017-11-29T03:29:42.533Z,0.28
2017-11-29T03:30:52.857Z,0.24
2017-11-29T03:32:03.231Z,0.22
2017-11-29T03:33:13.533Z,0.21
2017-11-29T03:34:23.844Z,0.21
2017-11-29T03:35:34.120Z,0.11
2017-11-29T03:36:44.406Z,0.06
2017-11-29T03:37:54.529Z,0.09
2017-11-29T03:39:04.800Z,0.09
2017-11-29T03:40:14.825Z,0.09
2017-11-29T03:41:25.153Z,0.05
2017-11-29T03:42:35.521Z,0.03
2017-11-29T03:43:45.319Z,0.01
2017-11-29T03:44:55.659Z,0.03
2017-11-29T03:46:05.939Z,0.08
2017-11-29T03:47:15.695Z,0.06
2017-11-29T03:48:25.588Z,0.01
2017-11-29T03:49:35.857Z,0.01
2017-11-29T03:50:45.943Z,0.06
2017-11-29T03:51:56.284Z,-0.02
2017-11-29T03:53:06.592Z,-0.02
2017-11-29T03:54:16.885Z,-0.01
2017-11-29T03:55:26.846Z,-0.01
2017-11-29T03:56:37.400Z,-0.06
2017-11-29T03:57:47.574Z,-0.01
2017-11-29T03:58:57.999Z,0.02
2017-11-29T04:00:07.936Z,-0.04
2017-11-29T04:01:18.213Z,0.06
2017-11-29T04:02:27.949Z,-0.02
2017-11-29T04:03:38.471Z,0.03
2017-11-29T04:04:48.774Z,0.01
2017-11-29T04:05:59.035Z,-0.04
2017-11-29T04:07:09.162Z,-0.07
2017-11-29T04:08:18.974Z,-0.12
2017-11-29T04:09:28.606Z,-0.07
2017-11-29T04:10:38.903Z,-0.1
2017-11-29T04:11:49.167Z,-0.07
2017-11-29T04:12:59.655Z,-0.1
2017-11-29T04:14:09.560Z,-0.16
2017-11-29T04:15:19.805Z,-0.16
2017-11-29T04:16:29.606Z,-0.16
2017-11-29T04:17:39.886Z,-0.16
2017-11-29T04:18:50.215Z,-0.04
2017-11-29T04:20:00.749Z,-0.16
2017-11-29T04:21:11.074Z,-0.17
2017-11-29T04:22:21.403Z,-0.12
2017-11-29T04:23:31.766Z,-0.01
2017-11-29T04:24:42.073Z,-0.06
2017-11-29T04:25:52.346Z,-0.04
2017-11-29T04:27:02.913Z,-0.04
2017-11-29T04:28:13.240Z,-0.02
2017-11-29T04:29:23.045Z,-0.01
2017-11-29T04:30:33.093Z,0.01
2017-11-29T04:31:43.382Z,0.01
2017-11-29T04:32:53.700Z,-0.1
2017-11-29T04:34:04.046Z,-0.12
2017-11-29T04:35:14.289Z,-0.06
2017-11-29T04:36:24.303Z,-0.1
2017-11-29T04:37:34.774Z,-0.15
2017-11-29T04:38:45.162Z,-0.16
2017-11-29T04:39:55.435Z,-0.16
2017-11-29T04:41:05.759Z,-0.09
2017-11-29T04:42:16.143Z,-0.15
2017-11-29T04:43:26.464Z,-0.16
2017-11-29T04:44:36.209Z,-0.15
2017-11-29T04:45:46.464Z,-0.07
2017-11-29T04:46:56.540Z,-0.1
2017-11-29T04:48:06.942Z,-0.12
2017-11-29T04:49:17.031Z,-0.09
2017-11-29T04:50:27.339Z,-0.22
2017-11-29T04:51:37.381Z,-0.16
2017-11-29T04:52:47.355Z,-0.1
2017-11-29T04:53:57.647Z,-0.13
2017-11-29T04:55:07.665Z,-0.09
2017-11-29T04:56:17.953Z,-0.13
2017-11-29T04:57:28.493Z,-0.22
2017-11-29T04:58:38.836Z,-0.16
2017-11-29T04:59:49.109Z,-0.22
2017-11-29T05:00:59.433Z,-0.09
2017-11-29T05:02:09.725Z,-0.1
2017-11-29T05:03:19.878Z,-0.15
2017-11-29T05:04:29.940Z,-0.1
2017-11-29T05:05:39.937Z,-0.1
2017-11-29T05:06:50.515Z,-0.13
2017-11-29T05:08:00.786Z,-0.16
2017-11-29T05:09:11.065Z,-0.13
2017-11-29T05:10:21.331Z,-0.12
2017-11-29T05:11:31.540Z,-0.15
2017-11-29T05:12:41.923Z,-0.12
2017-11-29T05:13:52.289Z,-0.02
2017-11-29T05:15:02.565Z,-0.09
2017-11-29T05:16:12.831Z,0.02
2017-11-29T05:17:23.135Z,-0.15
2017-11-29T05:18:33.574Z,-0.15
2017-11-29T05:19:43.867Z,-0.17
2017-11-29T05:20:54.167Z,-0.17
2017-11-29T05:22:04.309Z,-0.15
2017-11-29T05:23:14.622Z,-0.15
2017-11-29T05:24:24.936Z,-0.23
2017-11-29T05:25:34.874Z,-0.27
2017-11-29T05:26:44.820Z,-0.23
2017-11-29T05:27:55.407Z,-0.19
2017-11-29T05:29:05.715Z,-0.22
2017-11-29T05:30:16.309Z,-0.22
2017-11-29T05:31:26.645Z,-0.33
2017-11-29T05:32:36.603Z,-0.27
2017-11-29T05:33:46.952Z,-0.22
2017-11-29T05:34:57.307Z,-0.2
2017-11-29T05:36:07.575Z,-0.15
2017-11-29T05:37:17.845Z,-0.16
2017-11-29T05:38:27.949Z,-0.1
2017-11-29T05:39:38.485Z,-0.09
2017-11-29T05:40:48.940Z,-0.15
2017-11-29T05:41:58.874Z,-0.16
2017-11-29T05:43:09.513Z,-0.12
2017-11-29T05:44:19.938Z,-0.06
2017-11-29T05:45:30.252Z,-0.09
2017-11-29T05:46:40.295Z,-0.01
2017-11-29T05:47:50.087Z,0.05
2017-11-29T05:49:00.693Z,0.03
2017-11-29T05:50:10.978Z,0.02
2017-11-29T05:51:21.289Z,-0.02
2017-11-29T05:52:31.401Z,0.06
2017-11-29T05:53:41.708Z,0.02
2017-11-29T05:54:52.027Z,0.08
2017-11-29T05:56:02.353Z,0.03
2017-11-29T05:57:12.662Z,0.12
2017-11-29T05:58:22.956Z,0.17
2017-11-29T05:59:33.369Z,0.03
2017-11-29T06:00:43.687Z,0.03
2017-11-29T06:01:54.014Z,0.05
2017-11-29T06:03:04.377Z,0.05
2017-11-29T06:04:14.662Z,0.08
2017-11-29T06:05:24.939Z,0.03
2017-11-29T06:06:34.571Z,0.01
2017-11-29T06:07:44.615Z,0.02
2017-11-29T06:08:54.946Z,-0.01
2017-11-29T06:10:05.344Z,-0.04
2017-11-29T06:11:15.667Z,-0.06
2017-11-29T06:12:25.907Z,-0.17
2017-11-29T06:13:35.911Z,-0.15
2017-11-29T06:14:46.229Z,-0.1
2017-11-29T06:15:56.467Z,-0.12
2017-11-29T06:17:06.763Z,-0.09
2017-11-29T06:18:17.258Z,0.02
2017-11-29T06:19:27.283Z,0.05
2017-11-29T06:20:37.493Z,0.01
2017-11-29T06:21:47.792Z,0.02
2017-11-29T06:22:58.153Z,0.08
2017-11-29T06:24:08.512Z,0.11
2017-11-29T06:25:18.854Z,0.01
2017-11-29T06:26:28.937Z,-0.02
2017-11-29T06:27:38.675Z,-0.13
2017-11-29T06:28:48.438Z,-0.02
2017-11-29T06:29:58.729Z,-0.17
2017-11-29T06:31:09.043Z,-0.09
2017-11-29T06:32:19.371Z,-0.1
2017-11-29T06:33:29.768Z,-0.12
2017-11-29T06:34:40.051Z,-0.22
2017-11-29T06:35:50.343Z,-0.17
2017-11-29T06:37:00.869Z,-0.2
2017-11-29T06:38:11.133Z,-0.1
2017-11-29T06:39:21.666Z,-0.23
2017-11-29T06:40:32.018Z,-0.17
2017-11-29T06:41:42.359Z,-0.19
2017-11-29T06:42:52.675Z,-0.09
2017-11-29T06:44:02.958Z,-0.12
2017-11-29T06:45:13.223Z,-0.16
2017-11-29T06:46:23.551Z,-0.19
2017-11-29T06:47:33.580Z,-0.13
2017-11-29T06:48:44.067Z,-0.22
2017-11-29T06:49:54.230Z,-0.12
2017-11-29T06:51:04.514Z,-0.16
2017-11-29T06:52:14.649Z,-0.1
2017-11-29T06:53:25.413Z,-0.12
2017-11-29T06:54:35.420Z,-0.12
2017-11-29T06:55:45.764Z,-0.16
2017-11-29T06:56:55.896Z,-0.16
2017-11-29T06:58:06.282Z,-0.12
2017-11-29T06:59:16.692Z,-0.13
2017-11-29T07:00:27.016Z,-0.15
2017-11-29T07:01:37.090Z,-0.15
2017-11-29T07:02:47.013Z,-0.15
2017-11-29T07:03:57.638Z,-0.04
2017-11-29T07:05:07.269Z,-0.15
2017-11-29T07:06:17.067Z,-0.15
2017-11-29T07:07:27.183Z,-0.12
2017-11-29T07:08:37.513Z,-0.13
2017-11-29T07:09:47.799Z,-0.16
2017-11-29T07:10:57.871Z,-0.09
2017-11-29T07:12:08.128Z,-0.1
2017-11-29T07:13:18.406Z,-0.1
2017-11-29T07:14:28.737Z,-0.09
2017-11-29T07:15:38.783Z,-0.1
2017-11-29T07:16:48.685Z,-0.13
2017-11-29T07:17:59.009Z,-0.16
2017-11-29T07:19:09.345Z,-0.15
2017-11-29T07:20:19.666Z,-0.02
2017-11-29T07:21:29.749Z,-0.01
2017-11-29T07:22:39.874Z,0.02
2017-11-29T07:23:49.801Z,0.08
2017-11-29T07:24:59.814Z,-0.01
2017-11-29T07:26:09.981Z,0.05
2017-11-29T07:27:20.357Z,0.05
2017-11-29T07:28:30.667Z,0.06
2017-11-29T07:29:40.571Z,0.08
2017-11-29T07:30:50.760Z,0.12
2017-11-29T07:32:00.524Z,0.14
2017-11-29T07:33:10.821Z,0.12
2017-11-29T07:34:21.008Z,0.08
2017-11-29T07:35:30.970Z,0.16
2017-11-29T07:36:40.731Z,0.2
2017-11-29T07:37:51.050Z,0.21
2017-11-29T07:39:01.354Z,0.22
2017-11-29T07:40:11.650Z,0.2
2017-11-29T07:41:21.944Z,0.27
2017-11-29T07:42:32.294Z,0.36
2017-11-29T07:43:42.597Z,0.35
2017-11-29T07:44:52.897Z,0.35
2017-11-29T07:46:03.012Z,0.42
2017-11-29T07:47:13.027Z,0.35
2017-11-29T07:48:23.311Z,0.43
2017-11-29T07:49:33.711Z,0.36
2017-11-29T07:50:44.080Z,0.4
2017-11-29T07:51:54.365Z,0.42
2017-11-29T07:53:04.663Z,0.42
2017-11-29T07:54:14.693Z,0.45
2017-11-29T07:55:24.975Z,0.53
2017-11-29T07:56:35.874Z,0.56
2017-11-29T07:57:46.403Z,0.56
2017-11-29T07:58:56.686Z,0.58
2017-11-29T08:00:07.322Z,0.64
2017-11-29T08:01:18.371Z,0.76
2017-11-29T08:02:28.716Z,0.81
2017-11-29T08:03:38.854Z,0.76
2017-11-29T08:04:49.144Z,0.76
2017-11-29T08:05:59.416Z,0.78
2017-11-29T08:07:09.701Z,0.81
2017-11-29T08:08:19.981Z,0.82
2017-11-29T08:09:31.297Z,0.86
2017-11-29T08:10:41.559Z,0.78
2017-11-29T08:11:52.350Z,0.84
2017-11-29T08:13:02.677Z,0.93
2017-11-29T08:14:12.739Z,1
2017-11-29T08:15:22.546Z,1.04
2017-11-29T08:16:32.814Z,1.04
2017-11-29T08:17:43.088Z,1.03
2017-11-29T08:18:53.403Z,1.11
2017-11-29T08:20:03.428Z,1.2
2017-11-29T08:21:13.700Z,1.25
2017-11-29T08:22:24.011Z,1.14
2017-11-29T08:23:34.031Z,1.22
2017-11-29T08:24:44.364Z,1.35
2017-11-29T08:25:54.286Z,1.35
2017-11-29T08:27:04.619Z,1.48
2017-11-29T08:28:14.552Z,1.39
2017-11-29T08:29:24.825Z,1.54
2017-11-29T08:30:35.116Z,1.5
2017-11-29T08:31:45.171Z,1.58
2017-11-29T08:32:55.463Z,1.53
2017-11-29T08:34:05.750Z,1.55
2017-11-29T08:35:16.042Z,1.7
2017-11-29T08:36:26.120Z,1.54
2017-11-29T08:37:36.417Z,1.57
2017-11-29T08:38:46.897Z,1.67
2017-11-29T08:39:57.157Z,1.67
2017-11-29T08:41:07.188Z,1.76
2017-11-29T08:42:17.763Z,1.74
2017-11-29T08:43:28.047Z,1.73
2017-11-29T08:44:37.934Z,1.8
2017-11-29T08:45:48.327Z,1.88
2017-11-29T08:46:58.639Z,1.91
2017-11-29T08:48:08.657Z,1.88
2017-11-29T08:49:19.222Z,1.95
2017-11-29T08:50:29.563Z,1.94
2017-11-29T08:51:39.852Z,2.06
2017-11-29T08:52:50.110Z,2.05
2017-11-29T08:54:00.382Z,2.13
2017-11-29T08:55:10.725Z,2.09
2017-11-29T08:56:21.031Z,2.13
2017-11-29T08:57:30.820Z,2.19
2017-11-29T08:58:40.838Z,2.28
2017-11-29T08:59:51.128Z,2.3
2017-11-29T09:01:01.412Z,2.28
2017-11-29T09:02:11.572Z,2.37
2017-11-29T09:03:21.528Z,2.39
2017-11-29T09:04:31.935Z,2.33
2017-11-29T09:05:42.225Z,2.37
2017-11-29T09:06:52.491Z,2.3
2017-11-29T09:08:03.055Z,2.48
2017-11-29T09:09:13.239Z,2.49
2017-11-29T09:10:23.258Z,2.52
2017-11-29T09:11:33.349Z,2.48
2017-11-29T09:12:43.909Z,2.53
2017-11-29T09:13:53.964Z,2.62
2017-11-29T09:15:03.989Z,2.63
2017-11-29T09:16:13.986Z,2.6
2017-11-29T09:17:24.290Z,2.62
2017-11-29T09:18:34.634Z,2.59
2017-11-29T09:19:44.953Z,2.7
2017-11-29T09:20:54.957Z,2.74
2017-11-29T09:22:05.235Z,2.77
2017-11-29T09:23:15.283Z,2.79
2017-11-29T09:24:25.512Z,2.87
2017-11-29T09:25:35.872Z,2.84
2017-11-29T09:26:45.574Z,2.91
2017-11-29T09:27:55.866Z,2.92
2017-11-29T09:29:06.461Z,3.02
2017-11-29T09:30:17.056Z,2.88
2017-11-29T09:31:27.501Z,3.02
2017-11-29T09:32:37.849Z,3.07
2017-11-29T09:33:47.615Z,3.21
2017-11-29T09:34:57.878Z,3.31
2017-11-29T09:36:08.217Z,3.52
2017-11-29T09:37:19.633Z,3.79
2017-11-29T09:38:29.845Z,4.09
2017-11-29T09:39:40.129Z,4.67
2017-11-29T09:40:50.628Z,5.14
2017-11-29T09:42:00.847Z,5.67
2017-11-29T09:43:11.078Z,6.09
2017-11-29T09:44:21.398Z,6.52
2017-11-29T09:45:32.518Z,6.93
2017-11-29T09:46:42.601Z,7.31
2017-11-29T09:47:53.165Z,7.48
2017-11-29T09:49:03.177Z,7.7
2017-11-29T09:50:13.499Z,8.15
2017-11-29T09:51:22.845Z,8.42
2017-11-29T09:52:33.178Z,8.6
2017-11-29T09:53:43.688Z,8.93
2017-11-29T09:54:54.029Z,9.05
2017-11-29T09:56:04.878Z,9.3
2017-11-29T09:57:15.186Z,9.4
2017-11-29T09:58:25.584Z,9.63
2017-11-29T09:59:36.832Z,9.83
2017-11-29T10:00:46.902Z,10
2017-11-29T10:01:57.187Z,10.19
2017-11-29T10:03:07.514Z,10.27
2017-11-29T10:04:17.810Z,10.4
2017-11-29T10:05:28.189Z,10.61
2017-11-29T10:06:38.482Z,10.8
2017-11-29T10:07:48.760Z,10.92
2017-11-29T10:08:59.069Z,11.15
2017-11-29T10:10:09.290Z,11.28
2017-11-29T10:11:19.304Z,11.34
2017-11-29T10:12:30.470Z,11.57
2017-11-29T10:13:41.632Z,11.71
2017-11-29T10:14:51.964Z,11.68
2017-11-29T10:16:02.077Z,11.46
2017-11-29T10:17:12.041Z,11.35
2017-11-29T10:18:22.376Z,11.16
2017-11-29T10:19:33.287Z,11.2
2017-11-29T10:20:43.682Z,11.21
2017-11-29T10:21:53.970Z,11.34
2017-11-29T10:23:04.503Z,11.39
2017-11-29T10:24:15.654Z,11.46
2017-11-29T10:25:26.321Z,11.45
2017-11-29T10:26:36.776Z,11.39
2017-11-29T10:27:47.284Z,11.42
2017-11-29T10:28:59.200Z,11.46
2017-11-29T10:30:09.679Z,11.27
2017-11-29T10:31:21.176Z,10.94
2017-11-29T10:32:31.854Z,10.9
2017-11-29T10:33:41.994Z,11.06
2017-11-29T10:34:52.315Z,11.15
2017-11-29T10:36:02.846Z,11.35
2017-11-29T10:37:13.145Z,11.58
2017-11-29T10:38:24.355Z,11.58
2017-11-29T10:39:35.523Z,11.82
2017-11-29T10:40:45.824Z,11.86
2017-11-29T10:41:57.215Z,12.07
2017-11-29T10:43:07.766Z,12.24
2017-11-29T10:44:19.507Z,12.22
2017-11-29T10:45:30.469Z,12.26
2017-11-29T10:46:41.383Z,12.15
2017-11-29T10:47:51.919Z,12.32
2017-11-29T10:49:02.715Z,12.44
2017-11-29T10:50:16.642Z,12.19
2017-11-29T10:51:27.188Z,12.16
2017-11-29T10:52:37.539Z,12.19
2017-11-29T10:53:47.837Z,12.09
2017-11-29T10:54:58.549Z,11.97
2017-11-29T10:56:09.295Z,11.9
2017-11-29T10:57:19.938Z,11.79
2017-11-29T10:58:30.929Z,11.62
2017-11-29T10:59:41.447Z,11.45
2017-11-29T11:00:53.070Z,11.45
2017-11-29T11:02:03.528Z,11.48
2017-11-29T11:03:13.546Z,11.34
2017-11-29T11:04:23.923Z,11.64
2017-11-29T11:05:34.207Z,11.69
2017-11-29T11:06:45.280Z,11.83
2017-11-29T11:07:55.507Z,11.91
2017-11-29T11:09:05.462Z,11.97
2017-11-29T11:10:15.385Z,12.02
2017-11-29T11:11:25.764Z,12.07
2017-11-29T11:12:36.077Z,12.07
2017-11-29T11:13:47.074Z,11.99
2017-11-29T11:14:57.301Z,11.95
2017-11-29T11:16:07.368Z,11.9
2017-11-29T11:17:18.730Z,11.9
2017-11-29T11:18:29.030Z,12.04
2017-11-29T11:19:39.075Z,12.07
2017-11-29T11:20:49.356Z,12.24
2017-11-29T11:21:59.535Z,12.27
2017-11-29T11:23:10.056Z,12.37
2017-11-29T11:24:20.601Z,12.59
2017-11-29T11:25:30.942Z,12.6
2017-11-29T11:26:41.006Z,12.72
2017-11-29T11:27:51.967Z,12.75
2017-11-29T11:29:01.444Z,12.78
2017-11-29T11:30:11.780Z,12.84
2017-11-29T11:31:22.090Z,12.81
2017-11-29T11:32:32.460Z,12.81
2017-11-29T11:33:43.247Z,12.88
2017-11-29T11:34:53.603Z,12.92
2017-11-29T11:36:04.020Z,12.9
2017-11-29T11:37:14.405Z,12.93
2017-11-29T11:38:24.515Z,12.97
2017-11-29T11:39:34.686Z,12.96
2017-11-29T11:40:44.735Z,12.81
2017-11-29T11:41:55.028Z,12.71
2017-11-29T11:43:05.462Z,12.55
2017-11-29T11:44:15.821Z,12.57
2017-11-29T11:45:26.152Z,12.64
2017-11-29T11:46:36.267Z,12.59
2017-11-29T11:47:46.369Z,12.5
2017-11-29T11:48:57.032Z,12.31
2017-11-29T11:50:07.345Z,12.02
2017-11-29T11:51:17.684Z,11.89
2017-11-29T11:52:28.001Z,11.79
2017-11-29T11:53:38.386Z,11.66
2017-11-29T11:54:48.357Z,11.61
2017-11-29T11:55:58.801Z,11.59
2017-11-29T11:57:09.109Z,11.39
2017-11-29T11:58:19.256Z,11.3
2017-11-29T11:59:29.640Z,11.17
2017-11-29T12:00:39.951Z,11
2017-11-29T12:01:50.013Z,10.88
2017-11-29T12:03:00.332Z,10.72
2017-11-29T12:04:10.406Z,10.57
2017-11-29T12:05:20.631Z,10.39
2017-11-29T12:06:30.941Z,10.3
2017-11-29T12:07:41.487Z,10.26
2017-11-29T12:08:51.810Z,10.19
2017-11-29T12:10:02.137Z,10.17
2017-11-29T12:11:12.431Z,9.84
2017-11-29T12:12:22.836Z,9.74
2017-11-29T12:13:33.215Z,9.63
2017-11-29T12:14:43.506Z,9.52
2017-11-29T12:15:53.809Z,9.33
2017-11-29T12:17:04.091Z,9.35
2017-11-29T12:18:14.364Z,9.15
2017-11-29T12:19:24.343Z,8.93
2017-11-29T12:20:34.561Z,8.66
2017-11-29T12:21:44.208Z,8.6
2017-11-29T12:22:54.508Z,8.53
2017-11-29T12:24:04.574Z,8.45
2017-11-29T12:25:14.892Z,8.35
2017-11-29T12:26:25.258Z,8.28
2017-11-29T12:27:35.575Z,8.16
2017-11-29T12:28:45.849Z,8.12
2017-11-29T12:29:56.180Z,7.9
2017-11-29T12:31:06.196Z,7.79
2017-11-29T12:32:16.268Z,7.77
2017-11-29T12:33:26.306Z,7.69
2017-11-29T12:34:36.742Z,7.4
2017-11-29T12:35:47.092Z,7.26
2017-11-29T12:36:57.121Z,7.2
2017-11-29T12:38:07.615Z,7.18
2017-11-29T12:39:18.177Z,7.14
2017-11-29T12:40:28.463Z,7.03
2017-11-29T12:41:38.484Z,6.89
2017-11-29T12:42:48.612Z,6.82
2017-11-29T12:43:58.906Z,6.56
2017-11-29T12:45:09.187Z,6.54
2017-11-29T12:46:19.580Z,6.38
2017-11-29T12:47:29.715Z,6.3
2017-11-29T12:48:39.773Z,6.3
2017-11-29T12:49:49.838Z,6.31
2017-11-29T12:50:59.878Z,6.27
2017-11-29T12:52:09.853Z,6.19
2017-11-29T12:53:19.628Z,6.06
2017-11-29T12:54:30.023Z,6.08
2017-11-29T12:55:40.335Z,5.96
2017-11-29T12:56:50.690Z,5.9
2017-11-29T12:58:01.270Z,5.84
2017-11-29T12:59:11.508Z,5.77
2017-11-29T13:00:21.819Z,5.72
2017-11-29T13:01:31.783Z,5.67
2017-11-29T13:02:42.069Z,5.56
2017-11-29T13:03:52.377Z,5.5
2017-11-29T13:05:02.706Z,5.41
2017-11-29T13:06:12.781Z,5.31
2017-11-29T13:07:23.113Z,5.24
2017-11-29T13:08:33.430Z,5.16
2017-11-29T13:09:44.147Z,5.11
2017-11-29T13:10:54.604Z,5.03
2017-11-29T13:12:04.655Z,4.99
2017-11-29T13:13:15.012Z,4.93
2017-11-29T13:14:25.319Z,4.9
2017-11-29T13:15:35.391Z,4.81
2017-11-29T13:16:45.688Z,4.62
2017-11-29T13:17:55.985Z,4.6
2017-11-29T13:19:06.294Z,4.49
2017-11-29T13:20:16.302Z,4.4
2017-11-29T13:21:26.607Z,4.41
2017-11-29T13:22:36.792Z,4.43
2017-11-29T13:23:47.131Z,4.43
2017-11-29T13:24:57.725Z,4.52
2017-11-29T13:26:08.073Z,4.55
2017-11-29T13:27:18.346Z,4.53
2017-11-29T13:28:28.700Z,4.53
2017-11-29T13:29:39.081Z,4.57
2017-11-29T13:30:49.422Z,4.65
2017-11-29T13:31:59.770Z,4.71
2017-11-29T13:33:10.070Z,4.73
2017-11-29T13:34:19.827Z,4.71
2017-11-29T13:35:30.169Z,4.63
2017-11-29T13:36:40.476Z,4.55
2017-11-29T13:37:50.489Z,4.62
2017-11-29T13:39:00.910Z,4.52
2017-11-29T13:40:11.199Z,4.57
2017-11-29T13:41:21.522Z,4.37
2017-11-29T13:42:31.197Z,4.22
2017-11-29T13:43:41.572Z,4.22
2017-11-29T13:44:51.589Z,4.16
2017-11-29T13:46:01.878Z,4.04
2017-11-29T13:47:12.166Z,3.98
2017-11-29T13:48:22.489Z,4.12
2017-11-29T13:49:32.806Z,4.13
2017-11-29T13:50:43.188Z,4.03
2017-11-29T13:51:53.526Z,4.08
2017-11-29T13:53:03.877Z,4.11
2017-11-29T13:54:14.292Z,3.98
2017-11-29T13:55:24.589Z,3.97
2017-11-29T13:56:34.889Z,4.04
2017-11-29T13:57:45.316Z,3.98
2017-11-29T13:58:55.366Z,4.01
2017-11-29T14:00:05.773Z,3.98
2017-11-29T14:01:16.178Z,4.05
2017-11-29T14:02:26.475Z,4.03
2017-11-29T14:03:36.636Z,4.01
2017-11-29T14:04:46.659Z,4.03
2017-11-29T14:05:57.232Z,4.04
2017-11-29T14:07:07.690Z,4.03
2017-11-29T14:08:17.762Z,3.93
2017-11-29T14:09:28.115Z,3.9
2017-11-29T14:10:38.404Z,4.01
2017-11-29T14:11:48.460Z,3.95
2017-11-29T14:12:58.799Z,4.01
2017-11-29T14:14:09.420Z,3.91
2017-11-29T14:15:19.769Z,3.9
2017-11-29T14:16:30.078Z,3.85
2017-11-29T14:17:40.372Z,3.85
2017-11-29T14:18:50.673Z,3.86
2017-11-29T14:20:01.018Z,3.85
2017-11-29T14:21:11.350Z,3.82
2017-11-29T14:22:21.661Z,3.83
2017-11-29T14:23:31.961Z,3.83
2017-11-29T14:24:42.248Z,3.82
2017-11-29T14:25:52.542Z,3.77
2017-11-29T14:27:03.024Z,3.76
2017-11-29T14:28:13.400Z,3.72
2017-11-29T14:29:24.075Z,3.76
2017-11-29T14:30:34.157Z,3.75
2017-11-29T14:31:44.112Z,3.69
2017-11-29T14:32:54.176Z,3.75
2017-11-29T14:34:04.419Z,3.67
2017-11-29T14:35:15.092Z,3.73
2017-11-29T14:36:25.558Z,3.76
2017-11-29T14:37:35.898Z,3.72
2017-11-29T14:38:46.055Z,3.75
2017-11-29T14:39:56.365Z,3.79
2017-11-29T14:41:06.704Z,3.79
2017-11-29T14:42:17.170Z,3.87
2017-11-29T14:43:27.499Z,3.65
2017-11-29T14:44:37.813Z,3.68
2017-11-29T14:45:48.370Z,3.65
2017-11-29T14:46:58.740Z,3.75
2017-11-29T14:48:08.773Z,3.73
2017-11-29T14:49:19.335Z,3.62
2017-11-29T14:50:29.360Z,3.65
2017-11-29T14:51:41.388Z,3.69
2017-11-29T14:52:52.323Z,3.59
2017-11-29T14:54:02.633Z,3.54
2017-11-29T14:55:13.167Z,3.47
2017-11-29T14:56:23.925Z,3.52
2017-11-29T14:57:34.143Z,3.46
2017-11-29T14:58:44.031Z,3.52
2017-11-29T14:59:54.503Z,3.5
2017-11-29T15:01:04.820Z,3.37
2017-11-29T15:02:15.300Z,3.37
2017-11-29T15:03:25.634Z,3.5
2017-11-29T15:04:36.157Z,3.57
2017-11-29T15:05:46.899Z,3.62
2017-11-29T15:06:57.611Z,3.67
2017-11-29T15:08:08.040Z,3.72
2017-11-29T15:09:18.389Z,3.73
2017-11-29T15:10:29.435Z,3.79
2017-11-29T15:11:39.658Z,3.8
2017-11-29T15:12:50.016Z,3.86
2017-11-29T15:14:00.549Z,3.83
2017-11-29T15:15:11.324Z,3.82
2017-11-29T15:16:21.621Z,3.77
2017-11-29T15:17:31.935Z,3.8
2017-11-29T15:18:42.881Z,3.67
2017-11-29T15:19:53.233Z,3.73
2017-11-29T15:21:03.892Z,3.65
2017-11-29T15:22:13.937Z,3.73
2017-11-29T15:23:24.229Z,3.72
2017-11-29T15:24:34.545Z,3.68
2017-11-29T15:25:45.151Z,3.65
2017-11-29T15:26:55.317Z,3.72
2017-11-29T15:28:05.722Z,3.67
2017-11-29T15:29:16.011Z,3.69
2017-11-29T15:30:26.147Z,3.54